sensor_id;sensor_type;location;lat;lon;timestamp;temperature;humidity
6756;DHT22;3415;51.148;7.014;2022-07-01T08:25:55;23.00;1.00
6756;DHT22;3415;51.148;7.014;2022-07-01T08:28:22;23.00;1.00
6756;DHT22;3415;51.148;7.014;2022-07-01T08:30:49;23.80;1.00
6756;DHT22;3415;51.148;7.014;2022-07-01T08:33:15;24.30;99.90
6756;DHT22;3415;51.148;7.014;2022-07-01T08:35:42;24.00;99.90
6756;DHT22;3415;51.148;7.014;2022-07-01T08:38:09;22.20;99.90
6756;DHT22;3415;51.148;7.014;2022-07-01T08:40:36;22.10;99.90
6756;DHT22;3415;51.148;7.014;2022-07-01T08:43:05;20.90;99.90
6756;DHT22;3415;51.148;7.014;2022-07-01T08:45:35;20.70;99.90
6756;DHT22;3415;51.148;7.014;2022-07-01T08:48:03;20.40;1.00
6756;DHT22;3415;51.148;7.014;2022-07-01T08:50:33;20.70;1.00
6756;DHT22;3415;51.148;7.014;2022-07-01T08:53:00;20.90;1.00
6756;DHT22;3415;51.148;7.014;2022-07-01T08:55:27;21.30;1.00
6756;DHT22;3415;51.148;7.014;2022-07-01T08:57:55;21.30;1.00
6756;DHT22;3415;51.148;7.014;2022-07-01T09:00:29;20.10;1.00
6756;DHT22;3415;51.148;7.014;2022-07-01T09:02:58;20.10;1.00
6756;DHT22;3415;51.148;7.014;2022-07-01T09:05:27;19.40;1.00
6756;DHT22;3415;51.148;7.014;2022-07-01T09:07:58;19.10;1.00
6756;DHT22;3415;51.148;7.014;2022-07-01T09:10:26;18.80;1.00
6756;DHT22;3415;51.148;7.014;2022-07-01T09:12:53;18.70;1.00
6756;DHT22;3415;51.148;7.014;2022-07-01T09:15:23;18.80;1.00
6756;DHT22;3415;51.148;7.014;2022-07-01T09:17:52;18.70;1.00
6756;DHT22;3415;51.148;7.014;2022-07-01T09:20:30;16.70;1.00
6756;DHT22;3415;51.148;7.014;2022-07-01T09:22:59;18.50;1.00
6756;DHT22;3415;51.148;7.014;2022-07-01T09:25:27;18.40;1.00
6756;DHT22;3415;51.148;7.014;2022-07-01T09:28:11;18.50;1.00
6756;DHT22;3415;51.148;7.014;2022-07-01T09:30:43;18.40;1.00
6756;DHT22;3415;51.148;7.014;2022-07-01T09:33:13;18.70;1.00
6756;DHT22;3415;51.148;7.014;2022-07-01T09:35:41;19.00;1.00
6756;DHT22;3415;51.148;7.014;2022-07-01T09:38:11;19.00;1.00
6756;DHT22;3415;51.148;7.014;2022-07-01T09:40:49;19.60;1.00
6756;DHT22;3415;51.148;7.014;2022-07-01T09:43:19;20.30;1.00
6756;DHT22;3415;51.148;7.014;2022-07-01T09:45:58;20.30;1.00
6756;DHT22;3415;51.148;7.014;2022-07-01T09:48:27;21.10;1.00
6756;DHT22;3415;51.148;7.014;2022-07-01T09:50:54;21.10;1.00
6756;DHT22;3415;51.148;7.014;2022-07-01T09:53:21;21.10;1.00
6756;DHT22;3415;51.148;7.014;2022-07-01T09:55:48;21.00;1.00
6756;DHT22;3415;51.148;7.014;2022-07-01T09:58:15;20.90;1.00
6756;DHT22;3415;51.148;7.014;2022-07-01T10:00:43;21.20;1.00
6756;DHT22;3415;51.148;7.014;2022-07-01T10:03:12;21.90;1.00
6756;DHT22;3415;51.148;7.014;2022-07-01T10:05:44;20.70;1.00
6756;DHT22;3415;51.148;7.014;2022-07-01T10:08:36;20.70;1.00
6756;DHT22;3415;51.148;7.014;2022-07-01T10:11:25;20.70;1.00
6756;DHT22;3415;51.148;7.014;2022-07-01T10:13:57;20.70;1.00
6756;DHT22;3415;51.148;7.014;2022-07-01T10:16:24;20.90;1.00
6756;DHT22;3415;51.148;7.014;2022-07-01T10:18:54;19.80;1.00
6756;DHT22;3415;51.148;7.014;2022-07-01T10:21:29;19.80;1.00
6756;DHT22;3415;51.148;7.014;2022-07-01T10:24:11;19.60;1.00
6756;DHT22;3415;51.148;7.014;2022-07-01T10:26:39;19.50;1.00
6756;DHT22;3415;51.148;7.014;2022-07-01T10:29:26;19.60;1.00
6756;DHT22;3415;51.148;7.014;2022-07-01T10:31:54;21.00;1.00
6756;DHT22;3415;51.148;7.014;2022-07-01T10:34:34;23.70;99.90
6756;DHT22;3415;51.148;7.014;2022-07-01T10:37:02;25.80;99.90
6756;DHT22;3415;51.148;7.014;2022-07-01T10:39:29;25.80;99.90
6756;DHT22;3415;51.148;7.014;2022-07-01T10:42:01;26.30;99.90
6756;DHT22;3415;51.148;7.014;2022-07-01T10:44:29;27.20;99.90
6756;DHT22;3415;51.148;7.014;2022-07-01T10:47:06;26.30;99.90
6756;DHT22;3415;51.148;7.014;2022-07-01T10:49:54;27.40;99.90
6756;DHT22;3415;51.148;7.014;2022-07-01T10:52:21;26.40;99.90
6756;DHT22;3415;51.148;7.014;2022-07-01T10:54:51;26.20;99.90
6756;DHT22;3415;51.148;7.014;2022-07-01T10:57:30;24.90;99.90
6756;DHT22;3415;51.148;7.014;2022-07-01T11:00:24;23.60;99.90
6756;DHT22;3415;51.148;7.014;2022-07-01T11:02:55;24.00;99.90
6756;DHT22;3415;51.148;7.014;2022-07-01T11:05:34;25.10;99.90
6756;DHT22;3415;51.148;7.014;2022-07-01T11:08:04;24.50;99.90
6756;DHT22;3415;51.148;7.014;2022-07-01T11:10:32;23.80;99.90
6756;DHT22;3415;51.148;7.014;2022-07-01T11:12:59;23.60;99.90
6756;DHT22;3415;51.148;7.014;2022-07-01T11:15:26;22.80;99.90
6756;DHT22;3415;51.148;7.014;2022-07-01T11:17:55;21.70;99.90
6756;DHT22;3415;51.148;7.014;2022-07-01T11:20:23;21.70;99.90
6756;DHT22;3415;51.148;7.014;2022-07-01T11:22:52;21.40;99.90
6756;DHT22;3415;51.148;7.014;2022-07-01T11:25:20;21.50;99.90
6756;DHT22;3415;51.148;7.014;2022-07-01T11:27:48;21.40;99.90
6756;DHT22;3415;51.148;7.014;2022-07-01T11:30:16;21.20;99.90
6756;DHT22;3415;51.148;7.014;2022-07-01T11:32:45;21.50;99.90
6756;DHT22;3415;51.148;7.014;2022-07-01T11:35:14;22.70;99.90
6756;DHT22;3415;51.148;7.014;2022-07-01T11:38:06;22.90;99.90
6756;DHT22;3415;51.148;7.014;2022-07-01T11:40:51;25.40;99.90
6756;DHT22;3415;51.148;7.014;2022-07-01T11:43:20;25.70;99.90
6756;DHT22;3415;51.148;7.014;2022-07-01T11:45:47;25.80;99.90
6756;DHT22;3415;51.148;7.014;2022-07-01T11:48:31;26.30;99.90
6756;DHT22;3415;51.148;7.014;2022-07-01T11:51:00;26.90;99.90
6756;DHT22;3415;51.148;7.014;2022-07-01T11:53:29;28.20;99.90
6756;DHT22;3415;51.148;7.014;2022-07-01T11:55:56;27.80;99.90
6756;DHT22;3415;51.148;7.014;2022-07-01T11:58:23;26.20;99.90
6756;DHT22;3415;51.148;7.014;2022-07-01T12:00:49;24.80;99.90
6756;DHT22;3415;51.148;7.014;2022-07-01T12:03:30;25.60;99.90
6756;DHT22;3415;51.148;7.014;2022-07-01T12:05:57;27.00;99.90
6756;DHT22;3415;51.148;7.014;2022-07-01T12:08:25;25.90;99.90
6756;DHT22;3415;51.148;7.014;2022-07-01T12:10:53;25.20;99.90
6756;DHT22;3415;51.148;7.014;2022-07-01T12:13:24;25.00;99.90
6756;DHT22;3415;51.148;7.014;2022-07-01T12:15:51;24.80;99.90
6756;DHT22;3415;51.148;7.014;2022-07-01T12:18:18;24.40;99.90
6756;DHT22;3415;51.148;7.014;2022-07-01T12:20:49;24.90;99.90
6756;DHT22;3415;51.148;7.014;2022-07-01T12:23:16;24.80;99.90
6756;DHT22;3415;51.148;7.014;2022-07-01T12:25:48;24.80;99.90
6756;DHT22;3415;51.148;7.014;2022-07-01T12:28:31;24.80;99.90
6756;DHT22;3415;51.148;7.014;2022-07-01T12:31:03;24.30;99.90
6756;DHT22;3415;51.148;7.014;2022-07-01T12:33:32;23.20;99.90
6756;DHT22;3415;51.148;7.014;2022-07-01T12:36:02;22.60;99.90
6756;DHT22;3415;51.148;7.014;2022-07-01T12:38:29;22.30;99.90
6756;DHT22;3415;51.148;7.014;2022-07-01T12:40:56;22.40;99.90
6756;DHT22;3415;51.148;7.014;2022-07-01T12:43:24;22.80;99.90
6756;DHT22;3415;51.148;7.014;2022-07-01T12:45:56;23.40;99.90
6756;DHT22;3415;51.148;7.014;2022-07-01T12:48:23;23.50;99.90
6756;DHT22;3415;51.148;7.014;2022-07-01T12:50:52;23.50;99.90
6756;DHT22;3415;51.148;7.014;2022-07-01T12:53:21;23.00;99.90
6756;DHT22;3415;51.148;7.014;2022-07-01T12:55:49;22.60;99.90
6756;DHT22;3415;51.148;7.014;2022-07-01T12:58:19;22.50;99.90
6756;DHT22;3415;51.148;7.014;2022-07-01T13:00:47;22.10;99.90
6756;DHT22;3415;51.148;7.014;2022-07-01T13:03:19;22.10;99.90
6756;DHT22;3415;51.148;7.014;2022-07-01T13:05:46;22.20;99.90
6756;DHT22;3415;51.148;7.014;2022-07-01T13:08:13;22.60;99.90
6756;DHT22;3415;51.148;7.014;2022-07-01T13:10:40;23.00;99.90
6756;DHT22;3415;51.148;7.014;2022-07-01T13:13:07;23.00;99.90
6756;DHT22;3415;51.148;7.014;2022-07-01T13:15:34;22.50;99.90
6756;DHT22;3415;51.148;7.014;2022-07-01T13:18:01;22.60;99.90
6756;DHT22;3415;51.148;7.014;2022-07-01T13:20:30;22.40;99.90
6756;DHT22;3415;51.148;7.014;2022-07-01T13:22:57;22.50;99.90
6756;DHT22;3415;51.148;7.014;2022-07-01T13:25:24;22.70;99.90
6756;DHT22;3415;51.148;7.014;2022-07-01T13:27:51;22.70;99.90
6756;DHT22;3415;51.148;7.014;2022-07-01T13:30:18;22.80;99.90
6756;DHT22;3415;51.148;7.014;2022-07-01T13:32:45;23.10;99.90
6756;DHT22;3415;51.148;7.014;2022-07-01T13:35:12;22.70;99.90
6756;DHT22;3415;51.148;7.014;2022-07-01T13:37:41;22.40;99.90
6756;DHT22;3415;51.148;7.014;2022-07-01T13:40:08;22.00;99.90
6756;DHT22;3415;51.148;7.014;2022-07-01T13:42:36;22.00;99.90
6756;DHT22;3415;51.148;7.014;2022-07-01T13:45:03;21.80;99.90
6756;DHT22;3415;51.148;7.014;2022-07-01T13:47:30;22.00;99.90
6756;DHT22;3415;51.148;7.014;2022-07-01T13:49:57;22.00;99.90
6756;DHT22;3415;51.148;7.014;2022-07-01T13:52:25;22.30;99.90
6756;DHT22;3415;51.148;7.014;2022-07-01T13:54:55;22.30;99.90
6756;DHT22;3415;51.148;7.014;2022-07-01T13:57:22;22.40;99.90
6756;DHT22;3415;51.148;7.014;2022-07-01T13:59:49;22.30;99.90
6756;DHT22;3415;51.148;7.014;2022-07-01T14:02:16;22.10;99.90
6756;DHT22;3415;51.148;7.014;2022-07-01T14:04:44;22.00;99.90
6756;DHT22;3415;51.148;7.014;2022-07-01T14:07:11;22.10;99.90
6756;DHT22;3415;51.148;7.014;2022-07-01T14:09:38;22.10;99.90
6756;DHT22;3415;51.148;7.014;2022-07-01T14:12:08;22.00;99.90
6756;DHT22;3415;51.148;7.014;2022-07-01T14:14:35;21.90;99.90
6756;DHT22;3415;51.148;7.014;2022-07-01T14:17:02;21.60;99.90
6756;DHT22;3415;51.148;7.014;2022-07-01T14:19:28;21.70;99.90
6756;DHT22;3415;51.148;7.014;2022-07-01T14:21:55;22.10;99.90
6756;DHT22;3415;51.148;7.014;2022-07-01T14:24:25;22.20;99.90
6756;DHT22;3415;51.148;7.014;2022-07-01T14:26:51;22.20;99.90
6756;DHT22;3415;51.148;7.014;2022-07-01T14:29:20;22.00;99.90
6756;DHT22;3415;51.148;7.014;2022-07-01T14:31:47;21.70;99.90
6756;DHT22;3415;51.148;7.014;2022-07-01T14:34:14;21.90;99.90
6756;DHT22;3415;51.148;7.014;2022-07-01T14:36:41;22.00;99.90
6756;DHT22;3415;51.148;7.014;2022-07-01T14:39:10;22.20;99.90
6756;DHT22;3415;51.148;7.014;2022-07-01T14:41:37;22.40;99.90
6756;DHT22;3415;51.148;7.014;2022-07-01T14:44:04;22.50;99.90
6756;DHT22;3415;51.148;7.014;2022-07-01T14:46:33;22.60;99.90
6756;DHT22;3415;51.148;7.014;2022-07-01T14:49:00;22.40;99.90
6756;DHT22;3415;51.148;7.014;2022-07-01T14:51:27;22.40;99.90
6756;DHT22;3415;51.148;7.014;2022-07-01T14:53:53;22.40;99.90
6756;DHT22;3415;51.148;7.014;2022-07-01T14:56:20;22.20;99.90
6756;DHT22;3415;51.148;7.014;2022-07-01T14:58:47;22.20;99.90
6756;DHT22;3415;51.148;7.014;2022-07-01T15:01:14;22.20;99.90
6756;DHT22;3415;51.148;7.014;2022-07-01T15:03:43;22.40;99.90
6756;DHT22;3415;51.148;7.014;2022-07-01T15:06:10;22.60;99.90
6756;DHT22;3415;51.148;7.014;2022-07-01T15:08:37;22.60;99.90
6756;DHT22;3415;51.148;7.014;2022-07-01T15:11:05;22.50;99.90
6756;DHT22;3415;51.148;7.014;2022-07-01T15:13:33;22.00;99.90
6756;DHT22;3415;51.148;7.014;2022-07-01T15:16:01;21.60;99.90
6756;DHT22;3415;51.148;7.014;2022-07-01T15:18:28;21.70;99.90
6756;DHT22;3415;51.148;7.014;2022-07-01T15:20:58;21.90;99.90
6756;DHT22;3415;51.148;7.014;2022-07-01T15:23:26;21.90;99.90
6756;DHT22;3415;51.148;7.014;2022-07-01T15:25:53;21.90;99.90
6756;DHT22;3415;51.148;7.014;2022-07-01T15:28:20;22.10;99.90
6756;DHT22;3415;51.148;7.014;2022-07-01T15:30:47;22.30;99.90
6756;DHT22;3415;51.148;7.014;2022-07-01T15:33:15;22.40;99.90
6756;DHT22;3415;51.148;7.014;2022-07-01T15:35:41;22.20;99.90
6756;DHT22;3415;51.148;7.014;2022-07-01T15:38:10;22.20;99.90
6756;DHT22;3415;51.148;7.014;2022-07-01T15:40:36;22.30;99.90
6756;DHT22;3415;51.148;7.014;2022-07-01T15:43:03;22.00;99.90
6756;DHT22;3415;51.148;7.014;2022-07-01T15:45:32;21.50;99.90
6756;DHT22;3415;51.148;7.014;2022-07-01T15:47:59;21.50;99.90
6756;DHT22;3415;51.148;7.014;2022-07-01T15:50:32;21.50;99.90
6756;DHT22;3415;51.148;7.014;2022-07-01T15:52:59;21.80;99.90
6756;DHT22;3415;51.148;7.014;2022-07-01T15:55:27;22.00;99.90
6756;DHT22;3415;51.148;7.014;2022-07-01T15:57:54;22.00;99.90
6756;DHT22;3415;51.148;7.014;2022-07-01T16:00:21;21.90;99.90
6756;DHT22;3415;51.148;7.014;2022-07-01T16:02:48;21.90;99.90
6756;DHT22;3415;51.148;7.014;2022-07-01T16:05:15;21.80;99.90
6756;DHT22;3415;51.148;7.014;2022-07-01T16:07:43;21.70;99.90
6756;DHT22;3415;51.148;7.014;2022-07-01T16:10:12;21.60;99.90
6756;DHT22;3415;51.148;7.014;2022-07-01T16:12:45;21.50;99.90
6756;DHT22;3415;51.148;7.014;2022-07-01T16:15:12;21.40;99.90
6756;DHT22;3415;51.148;7.014;2022-07-01T16:17:40;21.40;99.90
6756;DHT22;3415;51.148;7.014;2022-07-01T16:20:10;21.50;99.90
6756;DHT22;3415;51.148;7.014;2022-07-01T16:22:37;21.60;99.90
6756;DHT22;3415;51.148;7.014;2022-07-01T16:25:05;21.60;99.90
6756;DHT22;3415;51.148;7.014;2022-07-01T16:27:33;21.80;99.90
6756;DHT22;3415;51.148;7.014;2022-07-01T16:30:03;21.90;99.90
6756;DHT22;3415;51.148;7.014;2022-07-01T16:32:30;22.10;99.90
6756;DHT22;3415;51.148;7.014;2022-07-01T16:34:58;22.10;99.90
6756;DHT22;3415;51.148;7.014;2022-07-01T16:37:28;21.80;99.90
6756;DHT22;3415;51.148;7.014;2022-07-01T16:40:02;21.80;99.90
6756;DHT22;3415;51.148;7.014;2022-07-01T16:42:31;21.70;99.90
6756;DHT22;3415;51.148;7.014;2022-07-01T16:45:00;21.70;99.90
6756;DHT22;3415;51.148;7.014;2022-07-01T16:47:30;21.70;99.90
6756;DHT22;3415;51.148;7.014;2022-07-01T16:50:00;21.50;99.90
6756;DHT22;3415;51.148;7.014;2022-07-01T16:52:37;21.40;99.90
6756;DHT22;3415;51.148;7.014;2022-07-01T16:55:09;21.30;99.90
6756;DHT22;3415;51.148;7.014;2022-07-01T16:57:39;21.30;99.90
6756;DHT22;3415;51.148;7.014;2022-07-01T17:00:09;21.30;99.90
6756;DHT22;3415;51.148;7.014;2022-07-01T17:02:41;21.40;99.90
6756;DHT22;3415;51.148;7.014;2022-07-01T17:05:09;21.50;99.90
6756;DHT22;3415;51.148;7.014;2022-07-01T17:07:37;21.50;99.90
6756;DHT22;3415;51.148;7.014;2022-07-01T17:10:04;21.50;99.90
6756;DHT22;3415;51.148;7.014;2022-07-01T17:12:33;21.60;99.90
6756;DHT22;3415;51.148;7.014;2022-07-01T17:15:01;21.70;99.90
6756;DHT22;3415;51.148;7.014;2022-07-01T17:17:29;21.60;99.90
6756;DHT22;3415;51.148;7.014;2022-07-01T17:19:58;21.50;99.90
6756;DHT22;3415;51.148;7.014;2022-07-01T17:22:38;21.50;99.90
6756;DHT22;3415;51.148;7.014;2022-07-01T17:25:11;21.50;99.90
6756;DHT22;3415;51.148;7.014;2022-07-01T17:27:47;21.50;99.90
6756;DHT22;3415;51.148;7.014;2022-07-01T17:30:22;21.50;99.90
6756;DHT22;3415;51.148;7.014;2022-07-01T17:32:55;21.50;99.90
6756;DHT22;3415;51.148;7.014;2022-07-01T17:35:25;21.60;99.90
6756;DHT22;3415;51.148;7.014;2022-07-01T17:37:57;21.60;99.90
6756;DHT22;3415;51.148;7.014;2022-07-01T17:40:29;21.50;99.90
6756;DHT22;3415;51.148;7.014;2022-07-01T17:42:59;21.50;99.90
6756;DHT22;3415;51.148;7.014;2022-07-01T17:45:28;21.40;99.90
6756;DHT22;3415;51.148;7.014;2022-07-01T17:47:58;21.20;99.90
6756;DHT22;3415;51.148;7.014;2022-07-01T17:50:27;21.10;99.90
6756;DHT22;3415;51.148;7.014;2022-07-01T17:52:57;18.20;99.90
6756;DHT22;3415;51.148;7.014;2022-07-01T17:55:26;21.00;99.90
6756;DHT22;3415;51.148;7.014;2022-07-01T17:57:55;20.80;99.90
6756;DHT22;3415;51.148;7.014;2022-07-01T18:00:25;20.60;99.90
6756;DHT22;3415;51.148;7.014;2022-07-01T18:02:52;20.60;99.90
6756;DHT22;3415;51.148;7.014;2022-07-01T18:05:23;20.50;99.90
6756;DHT22;3415;51.148;7.014;2022-07-01T18:07:52;20.50;99.90
6756;DHT22;3415;51.148;7.014;2022-07-01T18:10:19;20.40;99.90
6756;DHT22;3415;51.148;7.014;2022-07-01T18:12:46;20.40;99.90
6756;DHT22;3415;51.148;7.014;2022-07-01T18:15:15;20.30;99.90
6756;DHT22;3415;51.148;7.014;2022-07-01T18:17:51;20.20;99.90
6756;DHT22;3415;51.148;7.014;2022-07-01T18:20:28;20.00;99.90
6756;DHT22;3415;51.148;7.014;2022-07-01T18:23:06;20.00;99.90
6756;DHT22;3415;51.148;7.014;2022-07-01T18:25:35;20.00;99.90
6756;DHT22;3415;51.148;7.014;2022-07-01T18:28:03;19.80;99.90
6756;DHT22;3415;51.148;7.014;2022-07-01T18:30:33;19.80;99.90
6756;DHT22;3415;51.148;7.014;2022-07-01T18:33:02;19.80;99.90
6756;DHT22;3415;51.148;7.014;2022-07-01T18:35:31;19.70;99.90
6756;DHT22;3415;51.148;7.014;2022-07-01T18:38:00;19.60;99.90
6756;DHT22;3415;51.148;7.014;2022-07-01T18:40:28;19.60;99.90
6756;DHT22;3415;51.148;7.014;2022-07-01T18:42:57;19.50;99.90
6756;DHT22;3415;51.148;7.014;2022-07-01T18:45:24;19.50;99.90
6756;DHT22;3415;51.148;7.014;2022-07-01T18:47:51;19.40;99.90
6756;DHT22;3415;51.148;7.014;2022-07-01T18:50:20;19.30;99.90
6756;DHT22;3415;51.148;7.014;2022-07-01T18:52:47;19.40;99.90
6756;DHT22;3415;51.148;7.014;2022-07-01T18:55:15;19.20;99.90
6756;DHT22;3415;51.148;7.014;2022-07-01T18:57:43;19.10;99.90
6756;DHT22;3415;51.148;7.014;2022-07-01T19:00:12;19.10;99.90
6756;DHT22;3415;51.148;7.014;2022-07-01T19:02:40;19.00;99.90
6756;DHT22;3415;51.148;7.014;2022-07-01T19:05:08;19.00;99.90
6756;DHT22;3415;51.148;7.014;2022-07-01T19:07:36;19.00;99.90
6756;DHT22;3415;51.148;7.014;2022-07-01T19:10:04;18.90;99.90
6756;DHT22;3415;51.148;7.014;2022-07-01T19:12:33;18.90;99.90
6756;DHT22;3415;51.148;7.014;2022-07-01T19:15:01;18.80;99.90
6756;DHT22;3415;51.148;7.014;2022-07-01T19:17:27;18.70;99.90
6756;DHT22;3415;51.148;7.014;2022-07-01T19:19:54;18.70;99.90
6756;DHT22;3415;51.148;7.014;2022-07-01T19:22:21;18.70;99.90
6756;DHT22;3415;51.148;7.014;2022-07-01T19:24:48;18.50;99.90
6756;DHT22;3415;51.148;7.014;2022-07-01T19:27:15;18.30;99.90
6756;DHT22;3415;51.148;7.014;2022-07-01T19:29:43;18.20;99.90
6756;DHT22;3415;51.148;7.014;2022-07-01T19:32:10;18.00;99.90
6756;DHT22;3415;51.148;7.014;2022-07-01T19:34:37;18.00;99.90
6756;DHT22;3415;51.148;7.014;2022-07-01T19:37:04;17.90;99.90
6756;DHT22;3415;51.148;7.014;2022-07-01T19:39:33;17.80;99.90
6756;DHT22;3415;51.148;7.014;2022-07-01T19:42:00;17.70;99.90
6756;DHT22;3415;51.148;7.014;2022-07-01T19:44:26;17.70;99.90
6756;DHT22;3415;51.148;7.014;2022-07-01T19:46:55;17.50;99.90
6756;DHT22;3415;51.148;7.014;2022-07-01T19:49:21;17.40;99.90
6756;DHT22;3415;51.148;7.014;2022-07-01T19:51:48;17.30;99.90
6756;DHT22;3415;51.148;7.014;2022-07-01T19:54:15;17.50;99.90
6756;DHT22;3415;51.148;7.014;2022-07-01T19:56:43;17.20;99.90
6756;DHT22;3415;51.148;7.014;2022-07-01T19:59:10;17.10;99.90
6756;DHT22;3415;51.148;7.014;2022-07-01T20:01:38;17.00;99.90
6756;DHT22;3415;51.148;7.014;2022-07-01T20:04:07;16.90;99.90
6756;DHT22;3415;51.148;7.014;2022-07-01T20:06:34;16.90;99.90
6756;DHT22;3415;51.148;7.014;2022-07-01T20:09:01;16.70;99.90
6756;DHT22;3415;51.148;7.014;2022-07-01T20:11:28;16.80;99.90
6756;DHT22;3415;51.148;7.014;2022-07-01T20:13:55;16.70;99.90
6756;DHT22;3415;51.148;7.014;2022-07-01T20:16:22;16.70;99.90
6756;DHT22;3415;51.148;7.014;2022-07-01T20:18:48;16.60;99.90
6756;DHT22;3415;51.148;7.014;2022-07-01T20:21:17;16.60;99.90
6756;DHT22;3415;51.148;7.014;2022-07-01T20:23:44;16.50;99.90
6756;DHT22;3415;51.148;7.014;2022-07-01T20:26:11;16.50;99.90
6756;DHT22;3415;51.148;7.014;2022-07-01T20:28:38;16.40;99.90
6756;DHT22;3415;51.148;7.014;2022-07-01T20:33:32;16.30;99.90
6756;DHT22;3415;51.148;7.014;2022-07-01T20:35:59;16.30;99.90
6756;DHT22;3415;51.148;7.014;2022-07-01T20:38:27;16.20;1.00
6756;DHT22;3415;51.148;7.014;2022-07-01T20:40:54;16.10;1.00
6756;DHT22;3415;51.148;7.014;2022-07-01T20:43:21;15.90;1.00
6756;DHT22;3415;51.148;7.014;2022-07-01T20:45:48;15.80;1.00
6756;DHT22;3415;51.148;7.014;2022-07-01T20:48:15;15.70;1.00
6756;DHT22;3415;51.148;7.014;2022-07-01T20:50:42;15.80;1.00
6756;DHT22;3415;51.148;7.014;2022-07-01T20:53:09;15.80;1.00
6756;DHT22;3415;51.148;7.014;2022-07-01T20:55:37;15.60;1.00
6756;DHT22;3415;51.148;7.014;2022-07-01T20:58:04;15.50;1.00
6756;DHT22;3415;51.148;7.014;2022-07-01T21:00:31;15.40;1.00
6756;DHT22;3415;51.148;7.014;2022-07-01T21:02:57;15.40;1.00
6756;DHT22;3415;51.148;7.014;2022-07-01T21:05:24;15.70;1.00
6756;DHT22;3415;51.148;7.014;2022-07-01T21:07:51;15.30;1.00
6756;DHT22;3415;51.148;7.014;2022-07-01T21:10:18;15.10;1.00
6756;DHT22;3415;51.148;7.014;2022-07-01T21:12:46;15.10;1.00
6756;DHT22;3415;51.148;7.014;2022-07-01T21:15:13;15.10;1.00
6756;DHT22;3415;51.148;7.014;2022-07-01T21:17:40;15.10;1.00
6756;DHT22;3415;51.148;7.014;2022-07-01T21:20:08;15.10;1.00
6756;DHT22;3415;51.148;7.014;2022-07-01T21:22:35;15.20;1.00
6756;DHT22;3415;51.148;7.014;2022-07-01T21:25:04;15.30;1.00
6756;DHT22;3415;51.148;7.014;2022-07-01T21:27:31;15.30;1.00
6756;DHT22;3415;51.148;7.014;2022-07-01T21:29:59;15.30;1.00
6756;DHT22;3415;51.148;7.014;2022-07-01T21:32:26;15.40;1.00
6756;DHT22;3415;51.148;7.014;2022-07-01T21:34:54;15.40;1.00
6756;DHT22;3415;51.148;7.014;2022-07-01T21:37:21;15.30;1.00
6756;DHT22;3415;51.148;7.014;2022-07-01T21:39:48;15.30;1.00
6756;DHT22;3415;51.148;7.014;2022-07-01T21:42:15;15.30;1.00
6756;DHT22;3415;51.148;7.014;2022-07-01T21:44:42;15.30;1.00
6756;DHT22;3415;51.148;7.014;2022-07-01T21:47:12;15.20;1.00
6756;DHT22;3415;51.148;7.014;2022-07-01T21:49:39;15.30;1.00
6756;DHT22;3415;51.148;7.014;2022-07-01T21:52:07;15.20;1.00
6756;DHT22;3415;51.148;7.014;2022-07-01T21:54:37;15.10;1.00
6756;DHT22;3415;51.148;7.014;2022-07-01T21:57:05;15.00;1.00
6756;DHT22;3415;51.148;7.014;2022-07-01T21:59:35;15.00;1.00
6756;DHT22;3415;51.148;7.014;2022-07-01T22:02:04;15.00;1.00
6756;DHT22;3415;51.148;7.014;2022-07-01T22:04:34;14.80;1.00
6756;DHT22;3415;51.148;7.014;2022-07-01T22:07:02;14.90;1.00
6756;DHT22;3415;51.148;7.014;2022-07-01T22:09:31;14.70;1.00
6756;DHT22;3415;51.148;7.014;2022-07-01T22:11:59;14.70;1.00
6756;DHT22;3415;51.148;7.014;2022-07-01T22:14:31;14.70;1.00
6756;DHT22;3415;51.148;7.014;2022-07-01T22:16:59;14.80;1.00
6756;DHT22;3415;51.148;7.014;2022-07-01T22:19:28;14.60;1.00
6756;DHT22;3415;51.148;7.014;2022-07-01T22:21:59;14.60;1.00
6756;DHT22;3415;51.148;7.014;2022-07-01T22:24:28;14.40;1.00
6756;DHT22;3415;51.148;7.014;2022-07-01T22:27:01;14.50;1.00
6756;DHT22;3415;51.148;7.014;2022-07-01T22:29:29;14.30;1.00
6756;DHT22;3415;51.148;7.014;2022-07-01T22:31:56;14.30;1.00
6756;DHT22;3415;51.148;7.014;2022-07-01T22:34:25;14.30;1.00
6756;DHT22;3415;51.148;7.014;2022-07-01T22:36:54;14.30;1.00
6756;DHT22;3415;51.148;7.014;2022-07-01T22:39:24;14.30;1.00
6756;DHT22;3415;51.148;7.014;2022-07-01T22:41:52;14.30;1.00
6756;DHT22;3415;51.148;7.014;2022-07-01T22:44:19;14.30;1.00
6756;DHT22;3415;51.148;7.014;2022-07-01T22:46:57;14.30;1.00
6756;DHT22;3415;51.148;7.014;2022-07-01T22:49:35;14.30;1.00
